sensor_id;sensor_type;location;lat;lon;timestamp;temperature;humidity
418;DHT22;49;48.530;9.200;2023-06-24T00:02:19;21.00;60.20
418;DHT22;49;48.530;9.200;2023-06-24T00:04:50;21.00;59.60
418;DHT22;49;48.530;9.200;2023-06-24T00:07:20;20.90;59.50
418;DHT22;49;48.530;9.200;2023-06-24T00:09:54;20.90;60.50
418;DHT22;49;48.530;9.200;2023-06-24T00:12:25;20.70;61.40
418;DHT22;49;48.530;9.200;2023-06-24T00:14:54;20.70;62.30
418;DHT22;49;48.530;9.200;2023-06-24T00:17:22;20.80;60.60
418;DHT22;49;48.530;9.200;2023-06-24T00:19:52;20.80;60.20
418;DHT22;49;48.530;9.200;2023-06-24T00:22:20;20.70;61.80
418;DHT22;49;48.530;9.200;2023-06-24T00:24:49;20.70;62.00
418;DHT22;49;48.530;9.200;2023-06-24T00:27:18;20.70;62.10
418;DHT22;49;48.530;9.200;2023-06-24T00:29:48;20.80;62.00
418;DHT22;49;48.530;9.200;2023-06-24T00:32:18;20.70;61.70
418;DHT22;49;48.530;9.200;2023-06-24T00:34:58;20.60;62.70
418;DHT22;49;48.530;9.200;2023-06-24T00:37:30;20.50;64.80
418;DHT22;49;48.530;9.200;2023-06-24T00:39:58;20.60;64.50
418;DHT22;49;48.530;9.200;2023-06-24T00:42:29;20.30;65.20
418;DHT22;49;48.530;9.200;2023-06-24T00:45:02;20.40;64.10
418;DHT22;49;48.530;9.200;2023-06-24T00:47:52;20.30;65.80
418;DHT22;49;48.530;9.200;2023-06-24T00:50:25;20.30;65.90
418;DHT22;49;48.530;9.200;2023-06-24T00:52:57;20.30;64.70
418;DHT22;49;48.530;9.200;2023-06-24T01:06:21;20.40;64.40
418;DHT22;49;48.530;9.200;2023-06-24T01:08:56;20.30;67.70
418;DHT22;49;48.530;9.200;2023-06-24T01:11:26;20.50;68.70
418;DHT22;49;48.530;9.200;2023-06-24T01:13:55;20.30;68.40
418;DHT22;49;48.530;9.200;2023-06-24T01:16:35;20.20;69.90
418;DHT22;49;48.530;9.200;2023-06-24T01:19:19;20.00;74.20
418;DHT22;49;48.530;9.200;2023-06-24T01:22:04;19.80;75.60
418;DHT22;49;48.530;9.200;2023-06-24T01:24:49;19.80;77.00
418;DHT22;49;48.530;9.200;2023-06-24T01:27:39;19.90;77.50
418;DHT22;49;48.530;9.200;2023-06-24T01:30:30;19.90;77.40
418;DHT22;49;48.530;9.200;2023-06-24T01:33:08;19.90;78.90
418;DHT22;49;48.530;9.200;2023-06-24T01:35:38;19.80;80.70
418;DHT22;49;48.530;9.200;2023-06-24T01:38:18;19.70;82.40
418;DHT22;49;48.530;9.200;2023-06-24T01:40:56;19.80;80.70
418;DHT22;49;48.530;9.200;2023-06-24T01:43:24;19.70;81.00
418;DHT22;49;48.530;9.200;2023-06-24T01:45:55;19.70;84.20
418;DHT22;49;48.530;9.200;2023-06-24T01:48:28;19.80;83.90
418;DHT22;49;48.530;9.200;2023-06-24T01:50:59;19.70;84.40
418;DHT22;49;48.530;9.200;2023-06-24T01:53:29;19.50;84.70
418;DHT22;49;48.530;9.200;2023-06-24T01:56:04;19.50;85.60
418;DHT22;49;48.530;9.200;2023-06-24T01:58:35;19.50;85.40
418;DHT22;49;48.530;9.200;2023-06-24T02:01:08;19.50;85.40
418;DHT22;49;48.530;9.200;2023-06-24T02:03:37;19.60;85.60
418;DHT22;49;48.530;9.200;2023-06-24T02:06:06;19.60;85.50
418;DHT22;49;48.530;9.200;2023-06-24T02:08:38;19.50;85.40
418;DHT22;49;48.530;9.200;2023-06-24T02:11:07;19.30;88.50
418;DHT22;49;48.530;9.200;2023-06-24T02:13:42;19.30;90.90
418;DHT22;49;48.530;9.200;2023-06-24T02:16:11;19.20;91.90
418;DHT22;49;48.530;9.200;2023-06-24T02:18:43;19.10;91.60
418;DHT22;49;48.530;9.200;2023-06-24T02:21:14;19.30;91.50
418;DHT22;49;48.530;9.200;2023-06-24T02:23:44;19.20;91.90
418;DHT22;49;48.530;9.200;2023-06-24T02:26:14;19.10;94.10
418;DHT22;49;48.530;9.200;2023-06-24T02:28:44;19.20;94.20
418;DHT22;49;48.530;9.200;2023-06-24T02:31:13;19.10;92.40
418;DHT22;49;48.530;9.200;2023-06-24T02:33:47;19.20;91.40
418;DHT22;49;48.530;9.200;2023-06-24T02:36:24;19.30;90.90
418;DHT22;49;48.530;9.200;2023-06-24T02:38:56;19.10;92.00
418;DHT22;49;48.530;9.200;2023-06-24T02:41:26;19.00;94.60
418;DHT22;49;48.530;9.200;2023-06-24T02:43:58;18.80;95.80
418;DHT22;49;48.530;9.200;2023-06-24T02:46:28;18.90;96.80
418;DHT22;49;48.530;9.200;2023-06-24T02:49:01;18.80;97.70
418;DHT22;49;48.530;9.200;2023-06-24T02:51:34;18.70;98.60
418;DHT22;49;48.530;9.200;2023-06-24T02:54:11;18.80;97.00
418;DHT22;49;48.530;9.200;2023-06-24T02:56:40;18.80;95.10
418;DHT22;49;48.530;9.200;2023-06-24T02:59:11;18.90;95.30
418;DHT22;49;48.530;9.200;2023-06-24T03:01:44;18.90;95.10
418;DHT22;49;48.530;9.200;2023-06-24T03:04:15;18.90;95.20
418;DHT22;49;48.530;9.200;2023-06-24T03:06:44;18.10;99.90
418;DHT22;49;48.530;9.200;2023-06-24T03:09:12;17.50;99.90
418;DHT22;49;48.530;9.200;2023-06-24T03:11:44;17.00;99.90
418;DHT22;49;48.530;9.200;2023-06-24T03:14:14;16.80;99.90
418;DHT22;49;48.530;9.200;2023-06-24T03:16:42;16.60;99.90
418;DHT22;49;48.530;9.200;2023-06-24T03:19:09;16.60;99.90
418;DHT22;49;48.530;9.200;2023-06-24T03:21:49;16.80;99.90
418;DHT22;49;48.530;9.200;2023-06-24T03:24:19;17.00;99.90
418;DHT22;49;48.530;9.200;2023-06-24T03:26:47;17.30;99.90
418;DHT22;49;48.530;9.200;2023-06-24T03:29:22;17.20;99.90
418;DHT22;49;48.530;9.200;2023-06-24T03:31:50;17.00;99.90
418;DHT22;49;48.530;9.200;2023-06-24T03:34:17;16.80;99.90
418;DHT22;49;48.530;9.200;2023-06-24T03:36:49;16.80;99.90
418;DHT22;49;48.530;9.200;2023-06-24T03:39:20;16.80;99.90
418;DHT22;49;48.530;9.200;2023-06-24T03:41:50;16.80;99.90
418;DHT22;49;48.530;9.200;2023-06-24T03:44:23;17.00;99.90
418;DHT22;49;48.530;9.200;2023-06-24T03:46:54;17.40;99.90
418;DHT22;49;48.530;9.200;2023-06-24T03:49:26;17.40;99.90
418;DHT22;49;48.530;9.200;2023-06-24T03:52:01;17.20;99.90
418;DHT22;49;48.530;9.200;2023-06-24T03:54:38;17.00;99.90
418;DHT22;49;48.530;9.200;2023-06-24T03:57:07;16.90;99.90
418;DHT22;49;48.530;9.200;2023-06-24T03:59:39;17.10;99.90
418;DHT22;49;48.530;9.200;2023-06-24T04:02:13;17.00;99.90
418;DHT22;49;48.530;9.200;2023-06-24T04:04:54;17.30;99.90
418;DHT22;49;48.530;9.200;2023-06-24T04:07:30;17.30;99.90
418;DHT22;49;48.530;9.200;2023-06-24T04:10:10;17.70;99.90
418;DHT22;49;48.530;9.200;2023-06-24T04:12:43;17.60;99.90
418;DHT22;49;48.530;9.200;2023-06-24T04:15:27;17.60;99.90
418;DHT22;49;48.530;9.200;2023-06-24T04:18:00;17.70;99.90
418;DHT22;49;48.530;9.200;2023-06-24T04:20:30;18.00;99.90
418;DHT22;49;48.530;9.200;2023-06-24T04:23:04;18.50;99.90
418;DHT22;49;48.530;9.200;2023-06-24T04:25:36;18.70;99.90
418;DHT22;49;48.530;9.200;2023-06-24T04:28:06;18.70;99.90
418;DHT22;49;48.530;9.200;2023-06-24T04:30:34;18.70;99.90
418;DHT22;49;48.530;9.200;2023-06-24T04:33:04;18.90;99.90
418;DHT22;49;48.530;9.200;2023-06-24T04:35:33;19.00;99.90
418;DHT22;49;48.530;9.200;2023-06-24T04:38:02;19.30;99.90
418;DHT22;49;48.530;9.200;2023-06-24T04:40:53;19.70;99.90
418;DHT22;49;48.530;9.200;2023-06-24T04:43:43;20.00;99.90
418;DHT22;49;48.530;9.200;2023-06-24T04:46:13;20.20;99.90
418;DHT22;49;48.530;9.200;2023-06-24T04:48:42;20.30;99.90
418;DHT22;49;48.530;9.200;2023-06-24T04:51:09;20.50;99.90
418;DHT22;49;48.530;9.200;2023-06-24T04:53:37;20.70;99.90
418;DHT22;49;48.530;9.200;2023-06-24T04:56:10;20.70;99.90
418;DHT22;49;48.530;9.200;2023-06-24T04:58:37;20.90;99.90
418;DHT22;49;48.530;9.200;2023-06-24T05:01:05;20.90;99.90
418;DHT22;49;48.530;9.200;2023-06-24T05:03:34;21.00;99.90
418;DHT22;49;48.530;9.200;2023-06-24T05:06:05;21.20;99.90
418;DHT22;49;48.530;9.200;2023-06-24T05:08:36;21.10;99.90
418;DHT22;49;48.530;9.200;2023-06-24T05:11:04;21.20;99.90
418;DHT22;49;48.530;9.200;2023-06-24T05:13:41;21.20;99.90
418;DHT22;49;48.530;9.200;2023-06-24T05:16:19;21.30;99.90
418;DHT22;49;48.530;9.200;2023-06-24T05:18:50;21.40;99.90
418;DHT22;49;48.530;9.200;2023-06-24T05:21:19;21.20;99.90
418;DHT22;49;48.530;9.200;2023-06-24T05:23:48;21.10;99.90
418;DHT22;49;48.530;9.200;2023-06-24T05:26:17;21.40;99.00
418;DHT22;49;48.530;9.200;2023-06-24T05:28:48;21.70;96.40
418;DHT22;49;48.530;9.200;2023-06-24T05:31:16;21.60;94.30
418;DHT22;49;48.530;9.200;2023-06-24T05:33:47;21.00;97.20
418;DHT22;49;48.530;9.200;2023-06-24T05:36:33;21.40;97.00
418;DHT22;49;48.530;9.200;2023-06-24T05:39:03;21.70;93.20
418;DHT22;49;48.530;9.200;2023-06-24T05:41:35;22.10;91.60
418;DHT22;49;48.530;9.200;2023-06-24T05:44:20;23.40;90.00
418;DHT22;49;48.530;9.200;2023-06-24T05:46:56;25.20;79.70
418;DHT22;49;48.530;9.200;2023-06-24T05:49:41;26.80;52.60
418;DHT22;49;48.530;9.200;2023-06-24T05:52:19;28.00;50.90
418;DHT22;49;48.530;9.200;2023-06-24T05:55:02;29.30;39.10
418;DHT22;49;48.530;9.200;2023-06-24T05:57:44;30.40;35.70
418;DHT22;49;48.530;9.200;2023-06-24T06:10:22;33.10;21.80
418;DHT22;49;48.530;9.200;2023-06-24T06:13:08;33.40;19.80
418;DHT22;49;48.530;9.200;2023-06-24T06:16:03;33.70;19.40
418;DHT22;49;48.530;9.200;2023-06-24T06:18:52;34.30;18.00
418;DHT22;49;48.530;9.200;2023-06-24T06:21:38;34.30;17.70
418;DHT22;49;48.530;9.200;2023-06-24T06:24:11;35.00;15.60
418;DHT22;49;48.530;9.200;2023-06-24T06:26:57;35.50;15.10
418;DHT22;49;48.530;9.200;2023-06-24T06:29:30;35.50;15.20
418;DHT22;49;48.530;9.200;2023-06-24T06:32:16;35.90;14.30
418;DHT22;49;48.530;9.200;2023-06-24T06:34:54;36.50;13.10
418;DHT22;49;48.530;9.200;2023-06-24T06:37:25;36.30;11.80
418;DHT22;49;48.530;9.200;2023-06-24T06:40:01;36.20;12.80
418;DHT22;49;48.530;9.200;2023-06-24T06:42:55;36.80;12.00
418;DHT22;49;48.530;9.200;2023-06-24T06:45:23;37.40;10.50
418;DHT22;49;48.530;9.200;2023-06-24T06:47:52;36.80;10.70
418;DHT22;49;48.530;9.200;2023-06-24T06:50:22;36.90;11.20
418;DHT22;49;48.530;9.200;2023-06-24T06:53:00;37.60;9.90
418;DHT22;49;48.530;9.200;2023-06-24T06:55:29;37.90;9.50
418;DHT22;49;48.530;9.200;2023-06-24T06:58:01;37.90;8.50
418;DHT22;49;48.530;9.200;2023-06-24T07:00:33;38.50;7.90
418;DHT22;49;48.530;9.200;2023-06-24T07:03:04;38.70;7.40
418;DHT22;49;48.530;9.200;2023-06-24T07:05:39;38.80;6.80
418;DHT22;49;48.530;9.200;2023-06-24T07:08:09;37.90;8.30
418;DHT22;49;48.530;9.200;2023-06-24T07:10:40;38.30;7.50
418;DHT22;49;48.530;9.200;2023-06-24T07:13:16;39.10;6.20
418;DHT22;49;48.530;9.200;2023-06-24T07:15:45;38.80;6.70
418;DHT22;49;48.530;9.200;2023-06-24T07:18:13;38.70;6.90
418;DHT22;49;48.530;9.200;2023-06-24T07:20:43;39.40;5.80
418;DHT22;49;48.530;9.200;2023-06-24T07:23:15;38.00;6.70
418;DHT22;49;48.530;9.200;2023-06-24T07:25:42;38.40;6.70
418;DHT22;49;48.530;9.200;2023-06-24T07:28:11;38.10;7.10
418;DHT22;49;48.530;9.200;2023-06-24T07:30:39;38.40;6.10
418;DHT22;49;48.530;9.200;2023-06-24T07:33:07;38.50;6.30
418;DHT22;49;48.530;9.200;2023-06-24T07:35:34;38.70;6.00
418;DHT22;49;48.530;9.200;2023-06-24T07:38:04;38.90;5.90
418;DHT22;49;48.530;9.200;2023-06-24T07:40:31;39.30;5.40
418;DHT22;49;48.530;9.200;2023-06-24T07:42:57;39.00;5.30
418;DHT22;49;48.530;9.200;2023-06-24T07:45:26;38.90;5.50
418;DHT22;49;48.530;9.200;2023-06-24T07:47:53;38.60;5.90
418;DHT22;49;48.530;9.200;2023-06-24T07:50:20;39.00;4.90
418;DHT22;49;48.530;9.200;2023-06-24T07:52:48;38.90;5.20
418;DHT22;49;48.530;9.200;2023-06-24T07:55:15;39.10;5.00
418;DHT22;49;48.530;9.200;2023-06-24T07:57:48;39.00;4.70
418;DHT22;49;48.530;9.200;2023-06-24T08:00:15;38.70;5.30
418;DHT22;49;48.530;9.200;2023-06-24T08:02:44;38.10;5.80
418;DHT22;49;48.530;9.200;2023-06-24T08:05:11;37.80;5.70
418;DHT22;49;48.530;9.200;2023-06-24T08:07:39;38.40;5.00
418;DHT22;49;48.530;9.200;2023-06-24T08:10:07;38.80;3.70
418;DHT22;49;48.530;9.200;2023-06-24T08:12:34;38.70;3.80
418;DHT22;49;48.530;9.200;2023-06-24T08:15:01;39.40;3.10
418;DHT22;49;48.530;9.200;2023-06-24T08:17:28;39.30;3.20
418;DHT22;49;48.530;9.200;2023-06-24T08:19:56;39.60;2.70
418;DHT22;49;48.530;9.200;2023-06-24T08:22:23;39.50;2.90
418;DHT22;49;48.530;9.200;2023-06-24T08:24:50;38.90;3.40
418;DHT22;49;48.530;9.200;2023-06-24T08:27:17;39.10;3.10
418;DHT22;49;48.530;9.200;2023-06-24T08:29:43;38.90;3.50
418;DHT22;49;48.530;9.200;2023-06-24T08:32:29;38.80;3.10
418;DHT22;49;48.530;9.200;2023-06-24T08:35:15;38.80;3.70
418;DHT22;49;48.530;9.200;2023-06-24T08:37:42;38.60;3.90
418;DHT22;49;48.530;9.200;2023-06-24T08:40:09;38.70;3.50
418;DHT22;49;48.530;9.200;2023-06-24T08:42:37;38.60;3.70
418;DHT22;49;48.530;9.200;2023-06-24T08:45:04;37.80;5.50
418;DHT22;49;48.530;9.200;2023-06-24T08:50:56;37.30;4.90
418;DHT22;49;48.530;9.200;2023-06-24T08:53:26;37.10;4.80
418;DHT22;49;48.530;9.200;2023-06-24T08:55:54;36.20;5.70
418;DHT22;49;48.530;9.200;2023-06-24T08:58:22;36.10;6.40
418;DHT22;49;48.530;9.200;2023-06-24T09:00:53;35.00;6.10
418;DHT22;49;48.530;9.200;2023-06-24T09:03:22;34.70;8.40
418;DHT22;49;48.530;9.200;2023-06-24T09:05:48;35.40;7.70
418;DHT22;49;48.530;9.200;2023-06-24T09:08:17;35.90;6.50
418;DHT22;49;48.530;9.200;2023-06-24T09:10:44;35.90;6.40
418;DHT22;49;48.530;9.200;2023-06-24T09:13:11;35.80;6.40
418;DHT22;49;48.530;9.200;2023-06-24T09:15:38;35.90;6.50
418;DHT22;49;48.530;9.200;2023-06-24T09:18:05;35.60;5.40
418;DHT22;49;48.530;9.200;2023-06-24T09:20:33;35.40;5.10
418;DHT22;49;48.530;9.200;2023-06-24T09:23:05;35.80;4.30
418;DHT22;49;48.530;9.200;2023-06-24T09:25:35;35.60;5.00
418;DHT22;49;48.530;9.200;2023-06-24T09:28:03;35.10;5.90
418;DHT22;49;48.530;9.200;2023-06-24T09:30:33;34.60;6.90
418;DHT22;49;48.530;9.200;2023-06-24T09:33:00;34.10;6.00
418;DHT22;49;48.530;9.200;2023-06-24T09:35:27;33.90;7.40
418;DHT22;49;48.530;9.200;2023-06-24T09:37:55;33.70;7.30
418;DHT22;49;48.530;9.200;2023-06-24T09:40:27;33.10;7.20
418;DHT22;49;48.530;9.200;2023-06-24T09:42:57;32.30;9.30
418;DHT22;49;48.530;9.200;2023-06-24T09:45:27;31.80;11.20
418;DHT22;49;48.530;9.200;2023-06-24T09:47:54;31.60;10.70
418;DHT22;49;48.530;9.200;2023-06-24T09:50:22;31.50;11.00
418;DHT22;49;48.530;9.200;2023-06-24T09:52:51;31.10;10.80
418;DHT22;49;48.530;9.200;2023-06-24T09:55:19;31.20;11.50
418;DHT22;49;48.530;9.200;2023-06-24T09:57:47;31.40;11.90
418;DHT22;49;48.530;9.200;2023-06-24T10:00:19;31.60;11.40
418;DHT22;49;48.530;9.200;2023-06-24T10:02:47;32.00;9.20
418;DHT22;49;48.530;9.200;2023-06-24T10:05:14;32.30;7.80
418;DHT22;49;48.530;9.200;2023-06-24T10:07:42;31.70;7.60
418;DHT22;49;48.530;9.200;2023-06-24T10:10:15;31.10;8.90
418;DHT22;49;48.530;9.200;2023-06-24T10:12:43;31.10;9.40
418;DHT22;49;48.530;9.200;2023-06-24T10:15:10;31.70;9.80
418;DHT22;49;48.530;9.200;2023-06-24T10:17:40;32.00;8.40
418;DHT22;49;48.530;9.200;2023-06-24T10:20:08;32.10;7.90
418;DHT22;49;48.530;9.200;2023-06-24T10:22:36;32.10;8.60
418;DHT22;49;48.530;9.200;2023-06-24T10:25:07;32.20;7.50
418;DHT22;49;48.530;9.200;2023-06-24T10:27:41;32.10;8.30
418;DHT22;49;48.530;9.200;2023-06-24T10:30:17;32.40;8.60
418;DHT22;49;48.530;9.200;2023-06-24T10:32:51;32.00;8.20
418;DHT22;49;48.530;9.200;2023-06-24T10:35:25;31.70;7.80
418;DHT22;49;48.530;9.200;2023-06-24T10:37:56;31.80;9.40
418;DHT22;49;48.530;9.200;2023-06-24T10:40:37;30.60;7.40
418;DHT22;49;48.530;9.200;2023-06-24T10:43:25;30.80;8.00
418;DHT22;49;48.530;9.200;2023-06-24T10:45:54;31.60;7.80
418;DHT22;49;48.530;9.200;2023-06-24T10:48:23;31.90;7.50
418;DHT22;49;48.530;9.200;2023-06-24T10:50:53;32.50;6.60
418;DHT22;49;48.530;9.200;2023-06-24T10:53:21;32.70;6.70
418;DHT22;49;48.530;9.200;2023-06-24T10:55:48;32.30;6.50
418;DHT22;49;48.530;9.200;2023-06-24T10:58:16;31.60;7.30
418;DHT22;49;48.530;9.200;2023-06-24T11:00:43;31.20;8.50
418;DHT22;49;48.530;9.200;2023-06-24T11:03:16;31.30;8.30
418;DHT22;49;48.530;9.200;2023-06-24T11:05:46;31.70;7.80
418;DHT22;49;48.530;9.200;2023-06-24T11:08:14;32.20;6.50
418;DHT22;49;48.530;9.200;2023-06-24T11:10:45;32.10;6.50
418;DHT22;49;48.530;9.200;2023-06-24T11:13:12;31.80;7.50
418;DHT22;49;48.530;9.200;2023-06-24T11:15:41;31.40;5.40
418;DHT22;49;48.530;9.200;2023-06-24T11:18:11;30.80;5.70
418;DHT22;49;48.530;9.200;2023-06-24T11:20:38;30.80;5.30
418;DHT22;49;48.530;9.200;2023-06-24T11:23:08;30.90;5.80
418;DHT22;49;48.530;9.200;2023-06-24T11:25:39;31.30;6.00
418;DHT22;49;48.530;9.200;2023-06-24T11:28:13;30.80;7.00
418;DHT22;49;48.530;9.200;2023-06-24T11:30:43;30.80;6.10
418;DHT22;49;48.530;9.200;2023-06-24T11:33:10;30.90;6.60
418;DHT22;49;48.530;9.200;2023-06-24T11:35:37;30.90;6.70
418;DHT22;49;48.530;9.200;2023-06-24T11:38:11;31.70;6.20
418;DHT22;49;48.530;9.200;2023-06-24T11:40:40;31.40;7.30
418;DHT22;49;48.530;9.200;2023-06-24T11:43:07;30.80;7.90
418;DHT22;49;48.530;9.200;2023-06-24T11:45:34;30.50;6.50
418;DHT22;49;48.530;9.200;2023-06-24T11:48:02;30.40;6.90
418;DHT22;49;48.530;9.200;2023-06-24T11:50:35;29.80;5.20
418;DHT22;49;48.530;9.200;2023-06-24T11:53:02;30.50;6.10
418;DHT22;49;48.530;9.200;2023-06-24T11:55:32;31.10;5.30
418;DHT22;49;48.530;9.200;2023-06-24T11:58:00;30.60;4.90
418;DHT22;49;48.530;9.200;2023-06-24T12:00:32;30.40;5.50
418;DHT22;49;48.530;9.200;2023-06-24T12:03:01;30.80;6.00
418;DHT22;49;48.530;9.200;2023-06-24T12:05:30;31.40;6.00
418;DHT22;49;48.530;9.200;2023-06-24T12:07:58;31.40;4.80
418;DHT22;49;48.530;9.200;2023-06-24T12:10:26;31.10;5.90
418;DHT22;49;48.530;9.200;2023-06-24T12:12:56;31.40;6.00
418;DHT22;49;48.530;9.200;2023-06-24T12:15:23;31.80;5.50
418;DHT22;49;48.530;9.200;2023-06-24T12:17:50;31.70;4.70
418;DHT22;49;48.530;9.200;2023-06-24T12:20:17;31.10;5.30
418;DHT22;49;48.530;9.200;2023-06-24T12:22:44;31.10;6.30
418;DHT22;49;48.530;9.200;2023-06-24T12:25:13;31.50;6.10
418;DHT22;49;48.530;9.200;2023-06-24T12:27:44;31.20;6.40
418;DHT22;49;48.530;9.200;2023-06-24T12:30:14;30.00;6.30
418;DHT22;49;48.530;9.200;2023-06-24T12:32:50;30.30;6.00
418;DHT22;49;48.530;9.200;2023-06-24T12:35:17;30.10;7.00
418;DHT22;49;48.530;9.200;2023-06-24T12:37:46;30.30;5.70
418;DHT22;49;48.530;9.200;2023-06-24T12:40:14;30.80;6.90
418;DHT22;49;48.530;9.200;2023-06-24T12:42:41;31.30;6.00
418;DHT22;49;48.530;9.200;2023-06-24T12:45:09;31.70;6.00
418;DHT22;49;48.530;9.200;2023-06-24T12:47:37;32.20;5.00
418;DHT22;49;48.530;9.200;2023-06-24T12:50:06;32.30;5.40
418;DHT22;49;48.530;9.200;2023-06-24T12:52:33;31.70;5.60
418;DHT22;49;48.530;9.200;2023-06-24T12:55:01;31.30;6.00
418;DHT22;49;48.530;9.200;2023-06-24T12:57:29;31.30;6.00
418;DHT22;49;48.530;9.200;2023-06-24T12:59:56;31.40;5.60
418;DHT22;49;48.530;9.200;2023-06-24T13:02:23;31.20;6.20
418;DHT22;49;48.530;9.200;2023-06-24T13:04:52;31.60;6.10
418;DHT22;49;48.530;9.200;2023-06-24T13:07:26;31.70;6.50
418;DHT22;49;48.530;9.200;2023-06-24T13:09:54;31.80;4.90
418;DHT22;49;48.530;9.200;2023-06-24T13:12:21;32.10;4.20
418;DHT22;49;48.530;9.200;2023-06-24T13:14:48;31.50;4.20
418;DHT22;49;48.530;9.200;2023-06-24T13:17:15;30.90;3.60
418;DHT22;49;48.530;9.200;2023-06-24T13:19:42;31.30;5.10
418;DHT22;49;48.530;9.200;2023-06-24T13:22:11;31.60;3.20
418;DHT22;49;48.530;9.200;2023-06-24T13:24:41;31.80;3.50
418;DHT22;49;48.530;9.200;2023-06-24T13:27:16;31.90;6.30
418;DHT22;49;48.530;9.200;2023-06-24T13:29:44;31.60;4.80
418;DHT22;49;48.530;9.200;2023-06-24T13:32:12;31.30;4.10
418;DHT22;49;48.530;9.200;2023-06-24T13:34:39;30.70;5.60
418;DHT22;49;48.530;9.200;2023-06-24T13:37:12;30.20;5.30
418;DHT22;49;48.530;9.200;2023-06-24T13:39:44;30.80;5.70
418;DHT22;49;48.530;9.200;2023-06-24T13:42:13;31.30;6.00
418;DHT22;49;48.530;9.200;2023-06-24T13:44:40;31.60;4.10
418;DHT22;49;48.530;9.200;2023-06-24T13:47:09;31.80;3.40
418;DHT22;49;48.530;9.200;2023-06-24T13:49:37;31.70;4.20
418;DHT22;49;48.530;9.200;2023-06-24T13:52:05;31.60;4.50
418;DHT22;49;48.530;9.200;2023-06-24T13:54:34;31.80;3.90
418;DHT22;49;48.530;9.200;2023-06-24T13:57:02;31.40;5.90
418;DHT22;49;48.530;9.200;2023-06-24T13:59:31;31.10;5.50
418;DHT22;49;48.530;9.200;2023-06-24T14:02:11;30.20;5.40
418;DHT22;49;48.530;9.200;2023-06-24T14:04:38;30.00;6.80
418;DHT22;49;48.530;9.200;2023-06-24T14:07:06;30.40;5.40
418;DHT22;49;48.530;9.200;2023-06-24T14:09:35;30.50;5.50
418;DHT22;49;48.530;9.200;2023-06-24T14:12:02;30.60;5.60
418;DHT22;49;48.530;9.200;2023-06-24T14:14:29;30.70;5.10
418;DHT22;49;48.530;9.200;2023-06-24T14:17:08;30.80;4.50
418;DHT22;49;48.530;9.200;2023-06-24T14:19:38;31.20;4.30
418;DHT22;49;48.530;9.200;2023-06-24T14:22:08;31.30;6.00
418;DHT22;49;48.530;9.200;2023-06-24T14:24:40;31.60;6.10
418;DHT22;49;48.530;9.200;2023-06-24T14:27:08;31.60;4.70
418;DHT22;49;48.530;9.200;2023-06-24T14:29:35;31.20;6.00
418;DHT22;49;48.530;9.200;2023-06-24T14:32:03;30.60;7.00
418;DHT22;49;48.530;9.200;2023-06-24T14:34:30;30.10;6.50
418;DHT22;49;48.530;9.200;2023-06-24T14:37:00;30.10;7.10
418;DHT22;49;48.530;9.200;2023-06-24T14:39:27;30.20;6.00
418;DHT22;49;48.530;9.200;2023-06-24T14:41:56;30.20;7.00
418;DHT22;49;48.530;9.200;2023-06-24T14:44:23;30.50;6.10
418;DHT22;49;48.530;9.200;2023-06-24T14:46:51;31.10;5.90
418;DHT22;49;48.530;9.200;2023-06-24T14:49:20;31.50;5.40
418;DHT22;49;48.530;9.200;2023-06-24T14:51:47;31.50;6.10
418;DHT22;49;48.530;9.200;2023-06-24T14:54:14;31.40;5.90
418;DHT22;49;48.530;9.200;2023-06-24T14:56:41;31.40;6.00
418;DHT22;49;48.530;9.200;2023-06-24T14:59:09;30.80;5.70
418;DHT22;49;48.530;9.200;2023-06-24T15:01:37;31.20;6.50
418;DHT22;49;48.530;9.200;2023-06-24T15:04:05;31.40;6.00
418;DHT22;49;48.530;9.200;2023-06-24T15:06:43;30.60;5.90
418;DHT22;49;48.530;9.200;2023-06-24T15:09:11;30.20;6.80
418;DHT22;49;48.530;9.200;2023-06-24T15:11:38;30.60;5.80
418;DHT22;49;48.530;9.200;2023-06-24T15:14:06;30.80;5.70
418;DHT22;49;48.530;9.200;2023-06-24T15:16:35;31.10;5.50
418;DHT22;49;48.530;9.200;2023-06-24T15:19:03;31.00;6.60
418;DHT22;49;48.530;9.200;2023-06-24T15:21:30;31.20;5.40
418;DHT22;49;48.530;9.200;2023-06-24T15:24:02;31.60;4.80
418;DHT22;49;48.530;9.200;2023-06-24T15:26:32;31.30;4.80
418;DHT22;49;48.530;9.200;2023-06-24T15:29:01;31.70;4.70
418;DHT22;49;48.530;9.200;2023-06-24T15:31:28;31.00;4.80
418;DHT22;49;48.530;9.200;2023-06-24T15:33:57;30.40;5.50
418;DHT22;49;48.530;9.200;2023-06-24T15:36:24;30.50;5.50
418;DHT22;49;48.530;9.200;2023-06-24T15:38:55;30.90;5.80
418;DHT22;49;48.530;9.200;2023-06-24T15:41:31;30.70;5.60
418;DHT22;49;48.530;9.200;2023-06-24T15:44:04;30.30;6.40
418;DHT22;49;48.530;9.200;2023-06-24T15:46:36;30.80;9.30
418;DHT22;49;48.530;9.200;2023-06-24T15:49:09;31.20;5.70
418;DHT22;49;48.530;9.200;2023-06-24T15:51:37;31.60;6.10
418;DHT22;49;48.530;9.200;2023-06-24T15:54:05;31.60;4.80
418;DHT22;49;48.530;9.200;2023-06-24T15:56:32;31.50;5.10
418;DHT22;49;48.530;9.200;2023-06-24T15:58:59;31.30;5.50
418;DHT22;49;48.530;9.200;2023-06-24T16:01:26;31.30;6.00
418;DHT22;49;48.530;9.200;2023-06-24T16:03:54;31.30;6.00
418;DHT22;49;48.530;9.200;2023-06-24T16:06:24;31.10;6.30
418;DHT22;49;48.530;9.200;2023-06-24T16:08:53;31.40;6.00
418;DHT22;49;48.530;9.200;2023-06-24T16:11:23;31.20;5.90
418;DHT22;49;48.530;9.200;2023-06-24T16:13:50;30.90;5.80
418;DHT22;49;48.530;9.200;2023-06-24T16:16:18;30.50;5.60
418;DHT22;49;48.530;9.200;2023-06-24T16:18:46;30.70;6.20
418;DHT22;49;48.530;9.200;2023-06-24T16:21:14;31.00;6.30
418;DHT22;49;48.530;9.200;2023-06-24T16:23:45;31.10;7.20
418;DHT22;49;48.530;9.200;2023-06-24T16:26:14;31.00;6.30
418;DHT22;49;48.530;9.200;2023-06-24T16:28:44;31.20;6.10
418;DHT22;49;48.530;9.200;2023-06-24T16:31:12;31.40;6.00
418;DHT22;49;48.530;9.200;2023-06-24T16:33:40;31.60;6.10
418;DHT22;49;48.530;9.200;2023-06-24T16:36:11;31.60;6.10
418;DHT22;49;48.530;9.200;2023-06-24T16:38:39;31.40;6.10
418;DHT22;49;48.530;9.200;2023-06-24T16:41:08;31.40;6.20
418;DHT22;49;48.530;9.200;2023-06-24T16:43:36;31.20;6.80
418;DHT22;49;48.530;9.200;2023-06-24T16:46:03;31.30;6.50
418;DHT22;49;48.530;9.200;2023-06-24T16:48:32;31.00;6.70
418;DHT22;49;48.530;9.200;2023-06-24T16:51:03;30.60;7.80
418;DHT22;49;48.530;9.200;2023-06-24T16:53:31;30.50;7.70
418;DHT22;49;48.530;9.200;2023-06-24T16:58:57;30.50;7.70
418;DHT22;49;48.530;9.200;2023-06-24T17:01:24;30.50;6.60
418;DHT22;49;48.530;9.200;2023-06-24T17:03:54;30.70;6.40
418;DHT22;49;48.530;9.200;2023-06-24T17:06:21;30.90;6.80
418;DHT22;49;48.530;9.200;2023-06-24T17:08:49;30.80;6.90
418;DHT22;49;48.530;9.200;2023-06-24T17:11:21;30.50;7.80
418;DHT22;49;48.530;9.200;2023-06-24T17:13:53;30.50;7.90
418;DHT22;49;48.530;9.200;2023-06-24T17:16:27;30.80;7.50
418;DHT22;49;48.530;9.200;2023-06-24T17:18:55;31.00;6.90
418;DHT22;49;48.530;9.200;2023-06-24T17:21:25;30.90;6.40
418;DHT22;49;48.530;9.200;2023-06-24T17:23:55;30.90;7.40
418;DHT22;49;48.530;9.200;2023-06-24T17:26:23;30.80;6.70
418;DHT22;49;48.530;9.200;2023-06-24T17:28:52;30.70;7.30
418;DHT22;49;48.530;9.200;2023-06-24T17:31:22;30.40;7.70
418;DHT22;49;48.530;9.200;2023-06-24T17:33:51;30.60;7.70
418;DHT22;49;48.530;9.200;2023-06-24T17:36:20;30.60;7.80
418;DHT22;49;48.530;9.200;2023-06-24T17:38:48;30.70;7.90
418;DHT22;49;48.530;9.200;2023-06-24T17:41:15;31.00;7.90
418;DHT22;49;48.530;9.200;2023-06-24T17:43:48;31.10;7.90
418;DHT22;49;48.530;9.200;2023-06-24T17:46:19;30.80;7.80
418;DHT22;49;48.530;9.200;2023-06-24T17:48:49;30.40;8.40
418;DHT22;49;48.530;9.200;2023-06-24T17:51:16;30.50;8.60
418;DHT22;49;48.530;9.200;2023-06-24T17:53:43;30.40;8.00
418;DHT22;49;48.530;9.200;2023-06-24T17:56:11;30.30;8.50